サルタ の空港の天気 - METARとTAF

サルタ空港 ( SASA / SLA ) - アルゼンチン サルタ州、Salta
飛行場実況気象(Metar)
観測時間06/17 20:00 ART (06/17 23:00 UTC)
風向・風速静穏 0m/s
視程10km以上
天気現象
なし
気温7℃
湿度87%
気圧1014hPa
METARSASA 172300Z 00000KT CAVOK 07/05 Q1014
過去の天気等 Google飛行場航空写真 Wunderground天気予報

過去48時間のMETAR

飛行場予報(TAF)
発表時間: 6/17 20:00 ART (6/17 23:00 UTC)
予報対象時間: 17日21時 ART ~ 18日21時 ART
風向・風速不定 2m/s
視程10km以上
なし
18日3時 ART ~ 18日5時 ART に徐々に
視程5000m
天気現象もや
全天の8割程度の雲 雲底高度 120m
18日8時 ART ~ 18日10時 ART に徐々に
風向・風速北東 5m/s
視程10km以上
天気現象運行に影響にある天気現象が終了
全天の4割程度の雲 雲底高度 460m
TAF SASA 172300Z 1800/1824 VRB03KT CAVOK TX19/1818Z TN04/1811Z
BECMG 1806/1808 5000 BR BKN004
BECMG 1811/1813 05010KT 9999 NSW SCT015